Time;durP1;ratioP1;P1;durP2;ratioP2;P2;SDS_P1;SDS_P2;PMS_P1;PMS_P2;Temp;Humidity;BMP_temperature;BMP_pressure;BME280_temperature;BME280_humidity;BME280_pressure;Samples;Min_cycle;Max_cycle;Signal;HPM_P1;HPM_P2
2023/03/10 00:02:02;;;;;;;2.30;1.27;;;14.10;99.90;;;;;;5055438;28;20025;-74
2023/03/10 00:04:27;;;;;;;2.05;1.00;;;14.10;99.90;;;;;;5054826;28;20059;-75
2023/03/10 00:06:53;;;;;;;2.72;1.40;;;14.10;99.90;;;;;;5054813;28;20102;-81
2023/03/10 00:09:18;;;;;;;3.17;1.30;;;14.10;99.90;;;;;;5055166;28;20067;-80
2023/03/10 00:11:44;;;;;;;3.03;1.52;;;14.10;99.90;;;;;;5054901;28;20036;-80
2023/03/10 00:14:09;;;;;;;2.92;1.20;;;14.10;99.90;;;;;;5055064;28;20416;-79
2023/03/10 00:16:35;;;;;;;2.47;1.08;;;14.10;99.90;;;;;;5054991;28;20489;-77
2023/03/10 00:19:00;;;;;;;2.60;1.20;;;14.10;99.90;;;;;;5055065;28;20021;-81
2023/03/10 00:21:28;;;;;;;3.25;1.45;;;14.10;99.90;;;;;;5054558;28;20025;-81
2023/03/10 00:23:55;;;;;;;1.92;1.02;;;14.10;99.90;;;;;;5055446;28;20028;-82
2023/03/10 00:26:21;;;;;;;3.15;1.30;;;14.10;99.90;;;;;;5055087;28;20103;-78
2023/03/10 00:28:48;;;;;;;3.47;1.10;;;14.00;99.90;;;;;;5054940;28;20032;-83
2023/03/10 00:31:16;;;;;;;2.65;1.42;;;14.00;99.90;;;;;;5054750;28;20025;-79
2023/03/10 00:33:42;;;;;;;1.75;0.98;;;14.00;99.90;;;;;;5054606;28;20017;-78
2023/03/10 00:36:17;;;;;;;3.03;1.45;;;14.00;99.90;;;;;;5054188;28;20029;-81
2023/03/10 00:38:44;;;;;;;1.70;0.85;;;14.10;99.90;;;;;;5054717;28;20021;-80
2023/03/10 00:41:29;;;;;;;2.97;1.15;;;14.00;99.90;;;;;;5054404;28;20114;-83
2023/03/10 00:43:56;;;;;;;5.22;0.90;;;14.10;99.90;;;;;;5054570;28;20027;-79
2023/03/10 00:46:22;;;;;;;2.38;1.10;;;14.00;99.90;;;;;;5053988;28;20028;-84
2023/03/10 00:48:48;;;;;;;2.05;0.75;;;14.00;99.90;;;;;;5054518;28;20100;-83
2023/03/10 00:51:14;;;;;;;2.58;0.90;;;14.00;99.90;;;;;;5054007;28;20029;-84
2023/03/10 00:53:40;;;;;;;2.22;1.00;;;14.00;99.90;;;;;;5054293;28;20385;-86
2023/03/10 00:56:07;;;;;;;3.97;1.00;;;14.00;99.90;;;;;;5054078;28;20029;-83
2023/03/10 00:58:34;;;;;;;1.98;0.60;;;14.00;99.90;;;;;;5054351;28;20068;-75
2023/03/10 01:01:01;;;;;;;4.03;1.00;;;14.00;99.90;;;;;;5054095;28;20021;-81
2023/03/10 01:03:27;;;;;;;1.75;0.63;;;13.90;99.90;;;;;;5054132;28;20490;-83
2023/03/10 01:05:56;;;;;;;2.42;0.90;;;13.90;99.90;;;;;;5053736;28;20029;-79
2023/03/10 01:08:22;;;;;;;1.63;0.70;;;13.90;99.90;;;;;;5054183;28;20037;-83
2023/03/10 01:10:48;;;;;;;1.90;0.77;;;13.90;99.90;;;;;;5053669;28;20037;-86
2023/03/10 01:13:16;;;;;;;3.13;1.10;;;13.90;99.90;;;;;;5036169;28;20025;-79
2023/03/10 01:15:43;;;;;;;2.15;0.90;;;13.90;99.90;;;;;;5053717;28;20021;-80
2023/03/10 01:18:09;;;;;;;2.75;0.73;;;13.90;99.90;;;;;;5054174;28;20028;-73
2023/03/10 01:20:34;;;;;;;1.90;0.80;;;13.90;99.90;;;;;;5053773;28;20105;-77
2023/03/10 01:23:00;;;;;;;3.55;1.08;;;13.90;99.90;;;;;;5035663;28;20025;-77
2023/03/10 01:25:27;;;;;;;2.80;0.98;;;13.90;99.90;;;;;;5053625;28;20034;-73
2023/03/10 01:27:53;;;;;;;3.40;0.90;;;13.90;99.90;;;;;;5053624;28;20135;-78
2023/03/10 01:30:18;;;;;;;3.13;0.95;;;13.90;99.90;;;;;;5053590;28;20111;-75
2023/03/10 01:32:44;;;;;;;2.30;1.00;;;13.80;99.90;;;;;;5053181;28;20037;-84
2023/03/10 01:35:10;;;;;;;4.22;1.00;;;13.90;99.90;;;;;;5053529;28;20094;-81
2023/03/10 01:37:36;;;;;;;3.08;1.02;;;13.90;99.90;;;;;;5053358;28;20041;-86
2023/03/10 01:40:04;;;;;;;4.40;1.40;;;13.90;99.90;;;;;;5053417;28;20023;-84
2023/03/10 01:42:30;;;;;;;6.40;1.80;;;13.90;99.90;;;;;;5053150;28;20079;-78
2023/03/10 01:45:08;;;;;;;3.50;1.30;;;13.90;99.90;;;;;;5053362;28;20021;-84
2023/03/10 01:47:34;;;;;;;5.82;1.55;;;13.90;99.90;;;;;;5052851;28;20031;-83
2023/03/10 01:50:00;;;;;;;4.53;1.65;;;13.80;99.90;;;;;;5053194;28;20111;-84
2023/03/10 01:52:31;;;;;;;3.72;1.02;;;13.90;99.90;;;;;;5051213;28;20474;-77
2023/03/10 01:55:10;;;;;;;2.92;1.00;;;13.90;99.90;;;;;;5049775;28;20120;-77
2023/03/10 01:57:56;;;;;;;3.13;1.50;;;13.90;99.90;;;;;;5033500;28;20063;-76
2023/03/10 02:00:23;;;;;;;4.78;1.52;;;13.90;99.90;;;;;;5052170;28;20088;-81
2023/03/10 02:03:07;;;;;;;2.85;1.13;;;13.90;99.90;;;;;;5052519;28;20079;-78
2023/03/10 02:05:38;;;;;;;2.97;1.30;;;13.90;99.90;;;;;;5052859;28;20077;-81
2023/03/10 02:08:05;;;;;;;3.70;1.02;;;13.90;99.90;;;;;;5052824;28;20060;-81
2023/03/10 02:10:31;;;;;;;7.28;2.30;;;13.90;99.90;;;;;;5052841;28;20462;-75
2023/03/10 02:12:57;;;;;;;5.55;1.73;;;13.90;99.90;;;;;;5034672;28;20490;-79
2023/03/10 02:15:22;;;;;;;3.13;1.00;;;13.90;99.90;;;;;;5052719;28;20044;-78
2023/03/10 02:17:50;;;;;;;3.60;0.75;;;13.90;99.90;;;;;;5052451;28;20067;-80
2023/03/10 02:20:37;;;;;;;5.10;1.45;;;13.90;99.90;;;;;;5053046;28;20029;-79
2023/03/10 02:23:02;;;;;;;8.52;2.15;;;13.90;99.90;;;;;;5052462;28;20021;-81
2023/03/10 02:25:50;;;;;;;5.38;1.33;;;13.90;99.90;;;;;;5052726;28;20079;-81
2023/03/10 02:28:16;;;;;;;3.55;0.90;;;13.90;99.90;;;;;;5052559;28;20025;-85
2023/03/10 02:30:45;;;;;;;3.83;1.38;;;13.90;99.90;;;;;;5052523;28;20053;-73
2023/03/10 02:33:18;;;;;;;5.07;0.98;;;13.90;99.90;;;;;;5052537;28;20029;-87
2023/03/10 02:35:44;;;;;;;3.70;1.08;;;13.90;99.90;;;;;;5052689;28;20061;-84
2023/03/10 02:38:10;;;;;;;2.60;1.20;;;13.90;99.90;;;;;;5052434;28;20051;-83
2023/03/10 02:40:49;;;;;;;3.08;0.88;;;14.00;99.90;;;;;;5052561;28;20037;-79
2023/03/10 02:43:23;;;;;;;2.17;0.77;;;14.00;99.90;;;;;;5052506;28;20100;-83
2023/03/10 02:45:51;;;;;;;3.60;1.00;;;14.00;99.90;;;;;;5052285;28;20466;-74
2023/03/10 02:48:25;;;;;;;2.78;1.10;;;14.00;99.90;;;;;;5052212;28;20035;-76
2023/03/10 02:50:52;;;;;;;5.05;1.15;;;14.00;99.90;;;;;;5052336;28;20063;-79
2023/03/10 02:53:20;;;;;;;7.63;1.80;;;14.00;99.90;;;;;;5052427;28;20041;-78
2023/03/10 02:55:46;;;;;;;6.25;1.45;;;14.00;99.90;;;;;;5052454;28;20029;-78
2023/03/10 02:58:13;;;;;;;3.78;1.10;;;14.00;99.90;;;;;;5052323;28;20017;-83
2023/03/10 03:00:40;;;;;;;4.10;1.10;;;14.00;99.90;;;;;;5052079;28;20033;-80
2023/03/10 03:03:06;;;;;;;3.17;1.13;;;14.00;99.90;;;;;;5052179;28;20397;-76
2023/03/10 03:05:33;;;;;;;5.88;1.60;;;14.00;99.90;;;;;;5051393;28;20070;-79
2023/03/10 03:07:58;;;;;;;2.80;0.82;;;13.90;99.90;;;;;;5053189;28;20041;-76
2023/03/10 03:10:24;;;;;;;3.72;1.60;;;14.00;99.90;;;;;;5038422;28;20035;-82
2023/03/10 03:12:50;;;;;;;5.45;1.20;;;13.90;99.90;;;;;;5056310;28;20037;-79
2023/03/10 03:15:17;;;;;;;8.98;2.63;;;14.00;99.90;;;;;;5055606;28;20033;-76
2023/03/10 03:17:42;;;;;;;8.63;2.33;;;13.90;99.90;;;;;;5056179;28;20028;-82
2023/03/10 03:20:12;;;;;;;10.88;2.60;;;13.80;99.90;;;;;;5055988;28;20029;-82
2023/03/10 03:22:39;;;;;;;9.38;2.53;;;13.80;99.90;;;;;;5038264;28;20017;-81
2023/03/10 03:25:04;;;;;;;11.40;2.47;;;13.70;99.90;;;;;;5055801;28;20032;-74
2023/03/10 03:27:30;;;;;;;11.82;3.42;;;13.70;99.90;;;;;;5055914;28;20067;-76
2023/03/10 03:29:57;;;;;;;17.90;5.40;;;13.60;99.90;;;;;;5055463;28;20589;-81
2023/03/10 03:32:23;;;;;;;19.77;6.20;;;13.60;99.90;;;;;;5055902;28;20037;-81
2023/03/10 03:34:48;;;;;;;11.10;3.78;;;13.50;99.90;;;;;;5054335;28;20431;-78
2023/03/10 03:37:14;;;;;;;9.50;2.85;;;13.60;99.90;;;;;;5055675;28;20434;-76
2023/03/10 03:39:39;;;;;;;10.98;2.63;;;13.70;99.90;;;;;;5055673;28;20032;-78
2023/03/10 03:42:05;;;;;;;10.30;2.83;;;13.60;99.90;;;;;;5055745;28;20028;-81
2023/03/10 03:44:31;;;;;;;8.73;2.17;;;13.60;99.90;;;;;;5055104;28;20033;-78
2023/03/10 03:46:56;;;;;;;9.85;2.50;;;13.50;99.90;;;;;;5037646;28;20020;-79
2023/03/10 03:49:22;;;;;;;7.88;1.88;;;13.60;99.90;;;;;;5055426;28;20036;-84
2023/03/10 03:51:47;;;;;;;6.18;1.65;;;13.50;99.90;;;;;;5055344;28;20040;-79
2023/03/10 03:54:13;;;;;;;6.60;1.65;;;13.60;99.90;;;;;;5055416;28;20025;-80
2023/03/10 03:56:38;;;;;;;6.18;1.88;;;13.60;99.90;;;;;;5055445;28;20432;-79
2023/03/10 03:59:04;;;;;;;7.40;2.15;;;13.60;99.90;;;;;;5054864;28;20032;-81
2023/03/10 04:01:30;;;;;;;7.90;1.60;;;13.60;99.90;;;;;;5055499;28;20021;-81
2023/03/10 04:03:55;;;;;;;6.25;1.77;;;13.70;99.90;;;;;;5055309;28;20489;-76
2023/03/10 04:06:21;;;;;;;8.73;2.17;;;13.60;99.90;;;;;;5054815;28;20425;-78
2023/03/10 04:08:49;;;;;;;5.32;1.70;;;13.60;99.90;;;;;;5055421;28;20025;-77
2023/03/10 04:11:14;;;;;;;4.43;1.58;;;13.60;99.90;;;;;;5037086;28;20036;-80
2023/03/10 04:13:40;;;;;;;7.13;2.00;;;13.60;99.90;;;;;;5054741;28;20017;-80
2023/03/10 04:16:07;;;;;;;10.10;2.40;;;13.60;99.90;;;;;;5055220;28;20444;-84
2023/03/10 04:18:32;;;;;;;7.72;2.17;;;13.60;99.90;;;;;;5055105;28;20048;-81
2023/03/10 04:20:58;;;;;;;12.10;2.30;;;13.50;99.90;;;;;;5053875;28;20053;-78
2023/03/10 04:23:24;;;;;;;8.93;2.28;;;13.50;99.90;;;;;;5055398;28;20025;-81
2023/03/10 04:25:49;;;;;;;14.15;2.95;;;13.50;99.90;;;;;;5054853;28;20028;-80
2023/03/10 04:28:15;;;;;;;5.65;1.67;;;13.50;99.90;;;;;;5054529;28;20041;-77
2023/03/10 04:30:42;;;;;;;7.70;2.17;;;13.50;99.90;;;;;;5054641;28;20478;-78
2023/03/10 04:33:09;;;;;;;8.85;2.28;;;13.50;99.90;;;;;;5036887;28;20059;-79
2023/03/10 04:35:38;;;;;;;7.32;1.50;;;13.50;99.90;;;;;;5054474;28;20490;-75
2023/03/10 04:38:04;;;;;;;4.97;1.63;;;13.60;99.90;;;;;;5054612;28;20029;-76
2023/03/10 04:40:29;;;;;;;7.78;2.10;;;13.50;99.90;;;;;;5054466;28;20067;-81
2023/03/10 04:42:55;;;;;;;7.25;1.63;;;13.50;99.90;;;;;;5054426;28;20119;-85
2023/03/10 04:45:20;;;;;;;5.55;1.70;;;13.60;99.90;;;;;;5054328;28;20029;-87
2023/03/10 04:47:46;;;;;;;8.52;2.17;;;13.60;99.90;;;;;;5054543;28;20053;-75
2023/03/10 04:50:16;;;;;;;8.60;1.73;;;13.60;99.90;;;;;;5054655;28;20118;-83
2023/03/10 04:52:44;;;;;;;8.32;2.45;;;13.60;99.90;;;;;;5054442;28;20171;-81
2023/03/10 04:55:11;;;;;;;8.43;2.17;;;13.60;99.90;;;;;;5054040;28;20382;-76
2023/03/10 04:57:37;;;;;;;7.88;1.80;;;13.50;99.90;;;;;;5036113;28;20021;-78
2023/03/10 05:00:06;;;;;;;12.38;2.70;;;13.60;99.90;;;;;;5054360;28;20021;-77
2023/03/10 05:02:32;;;;;;;12.20;2.65;;;13.50;99.90;;;;;;5053948;28;20040;-79
2023/03/10 05:05:00;;;;;;;7.05;1.88;;;13.50;99.90;;;;;;5054217;28;20017;-78
2023/03/10 05:07:26;;;;;;;9.73;2.30;;;13.60;99.90;;;;;;5053762;28;20129;-79
2023/03/10 05:09:51;;;;;;;10.52;2.30;;;13.60;99.90;;;;;;5053935;28;20096;-79
2023/03/10 05:12:17;;;;;;;9.23;2.28;;;13.50;99.90;;;;;;5053503;28;20155;-77
2023/03/10 05:14:43;;;;;;;6.13;2.17;;;13.50;99.90;;;;;;5053839;28;20017;-76
2023/03/10 05:17:08;;;;;;;9.63;2.40;;;13.50;99.90;;;;;;5053983;28;20453;-81
2023/03/10 05:19:34;;;;;;;14.77;3.00;;;13.40;99.90;;;;;;5053880;28;20118;-81
2023/03/10 05:22:00;;;;;;;9.73;2.30;;;13.40;99.90;;;;;;5053668;28;20021;-76
2023/03/10 05:24:26;;;;;;;9.20;2.22;;;13.40;99.90;;;;;;5053626;28;20029;-77
2023/03/10 05:26:51;;;;;;;10.57;2.28;;;13.40;99.90;;;;;;5053414;28;20462;-83
2023/03/10 05:29:19;;;;;;;7.47;2.10;;;13.40;99.90;;;;;;5053706;28;20036;-79
2023/03/10 05:31:45;;;;;;;11.20;2.40;;;13.40;99.90;;;;;;5053414;28;20063;-84
2023/03/10 05:34:12;;;;;;;9.45;2.13;;;13.40;99.90;;;;;;5053514;28;20075;-77
2023/03/10 05:36:38;;;;;;;8.05;2.17;;;13.40;99.90;;;;;;5053255;28;20037;-78
2023/03/10 05:39:05;;;;;;;9.45;2.28;;;13.40;99.90;;;;;;5053519;28;20025;-77
2023/03/10 05:41:32;;;;;;;12.20;2.83;;;13.40;99.90;;;;;;5053214;28;20103;-87
2023/03/10 05:43:57;;;;;;;8.52;2.60;;;13.30;99.90;;;;;;5053412;28;20021;-79
2023/03/10 05:46:23;;;;;;;7.97;2.20;;;13.40;99.90;;;;;;5053132;28;20119;-73
2023/03/10 05:48:49;;;;;;;7.15;1.92;;;13.40;99.90;;;;;;5053386;28;20056;-82
2023/03/10 05:51:14;;;;;;;7.63;2.33;;;13.40;99.90;;;;;;5053116;28;20112;-80
2023/03/10 05:53:41;;;;;;;9.35;1.95;;;13.40;99.90;;;;;;5052895;28;20036;-81
2023/03/10 05:56:10;;;;;;;6.00;1.50;;;13.40;99.90;;;;;;5053121;28;20021;-79
2023/03/10 05:58:36;;;;;;;8.52;2.35;;;13.40;99.90;;;;;;5053033;28;20551;-79
2023/03/10 06:01:02;;;;;;;7.38;1.70;;;13.40;99.90;;;;;;5046474;28;20032;-77
2023/03/10 06:03:28;;;;;;;5.03;1.90;;;13.40;99.90;;;;;;5015909;28;20025;-75
2023/03/10 06:05:58;;;;;;;8.65;2.40;;;13.40;99.90;;;;;;5040251;28;20025;-86
2023/03/10 06:08:25;;;;;;;14.77;2.60;;;13.50;99.90;;;;;;5038600;28;20124;-75
2023/03/10 06:10:50;;;;;;;8.95;2.30;;;13.40;99.90;;;;;;5046858;28;20104;-72
2023/03/10 06:13:18;;;;;;;6.95;1.92;;;13.40;99.90;;;;;;5049634;28;20108;-82
2023/03/10 06:15:48;;;;;;;8.73;2.00;;;13.30;99.70;;;;;;5044468;28;20071;-83
2023/03/10 06:18:14;;;;;;;5.85;1.70;;;13.30;99.40;;;;;;5041350;28;20021;-77
2023/03/10 06:20:39;;;;;;;8.88;2.33;;;13.40;99.10;;;;;;5048844;28;20029;-83
2023/03/10 06:23:05;;;;;;;8.27;1.95;;;13.40;99.20;;;;;;5036980;28;20434;-77
2023/03/10 06:25:31;;;;;;;8.13;2.00;;;13.30;98.80;;;;;;5033145;28;20363;-80
2023/03/10 06:27:56;;;;;;;11.02;2.55;;;13.40;98.70;;;;;;5033943;28;20033;-71
2023/03/10 06:30:22;;;;;;;6.53;1.98;;;13.50;99.30;;;;;;5041050;28;20021;-72
2023/03/10 06:32:47;;;;;;;8.40;2.20;;;13.50;99.70;;;;;;5036438;28;20084;-74
2023/03/10 06:35:14;;;;;;;3.70;1.58;;;13.50;99.90;;;;;;5037539;28;20037;-72
2023/03/10 06:37:40;;;;;;;8.95;2.38;;;13.50;99.90;;;;;;5042933;28;20541;-70
2023/03/10 06:40:08;;;;;;;5.07;1.60;;;13.50;99.90;;;;;;5044483;28;20017;-70
2023/03/10 06:42:34;;;;;;;9.40;2.00;;;13.60;99.90;;;;;;5039872;28;20025;-71
2023/03/10 06:45:00;;;;;;;8.35;2.03;;;13.60;99.90;;;;;;5044620;28;20031;-72
2023/03/10 06:47:25;;;;;;;6.65;1.80;;;13.60;99.90;;;;;;5038637;28;20255;-73
2023/03/10 06:49:53;;;;;;;8.05;1.63;;;13.60;99.90;;;;;;5042362;28;20021;-72
2023/03/10 06:52:19;;;;;;;6.63;2.17;;;13.70;99.90;;;;;;5045419;28;20036;-69
2023/03/10 06:54:44;;;;;;;7.60;1.55;;;13.70;99.90;;;;;;5041507;28;20026;-77
2023/03/10 06:57:10;;;;;;;10.70;1.90;;;13.70;99.90;;;;;;5041519;28;20071;-72
2023/03/10 06:59:35;;;;;;;8.73;2.13;;;13.70;99.90;;;;;;5050270;28;20052;-67
2023/03/10 07:02:01;;;;;;;10.40;2.22;;;13.80;99.90;;;;;;5049555;28;20032;-78
2023/03/10 07:04:26;;;;;;;11.88;2.50;;;13.80;99.90;;;;;;5045952;28;20029;-73
2023/03/10 07:06:52;;;;;;;9.27;2.10;;;13.80;99.90;;;;;;5039186;28;20033;-73
2023/03/10 07:09:17;;;;;;;7.75;2.60;;;13.80;99.90;;;;;;5029608;28;20021;-73
2023/03/10 07:11:43;;;;;;;11.30;2.95;;;13.80;99.90;;;;;;5031195;28;20084;-77
2023/03/10 07:14:08;;;;;;;9.18;2.88;;;13.80;99.90;;;;;;5032057;28;20018;-72
2023/03/10 07:16:37;;;;;;;12.13;2.33;;;13.80;99.90;;;;;;5031851;28;20422;-73
2023/03/10 07:19:02;;;;;;;10.77;3.47;;;13.80;99.90;;;;;;5031839;28;20460;-71
2023/03/10 07:21:28;;;;;;;14.45;3.13;;;13.80;99.90;;;;;;5031867;28;20024;-77
2023/03/10 07:23:53;;;;;;;9.82;2.58;;;13.80;99.90;;;;;;5032163;28;20467;-69
2023/03/10 07:26:19;;;;;;;13.00;2.75;;;13.80;99.80;;;;;;5040952;28;20040;-74
2023/03/10 07:28:45;;;;;;;11.82;2.85;;;13.80;99.70;;;;;;5047352;28;20021;-72
2023/03/10 07:31:12;;;;;;;12.93;2.90;;;13.90;99.60;;;;;;5050158;28;20482;-76
2023/03/10 07:33:38;;;;;;;10.90;2.88;;;13.90;99.60;;;;;;5048180;28;20033;-77
2023/03/10 07:36:10;;;;;;;11.45;3.20;;;13.90;99.50;;;;;;5051776;28;20043;-70
2023/03/10 07:38:36;;;;;;;15.88;3.17;;;13.90;99.50;;;;;;5045761;28;20421;-80
2023/03/10 07:41:08;;;;;;;12.43;2.90;;;13.90;99.60;;;;;;5049880;28;20475;-73
2023/03/10 07:43:34;;;;;;;14.10;2.28;;;13.90;99.60;;;;;;5048256;28;20044;-74
2023/03/10 07:46:04;;;;;;;11.50;3.03;;;13.90;99.70;;;;;;5043841;28;20091;-74
2023/03/10 07:48:30;;;;;;;13.20;3.08;;;13.90;99.70;;;;;;5050088;28;20037;-77
2023/03/10 07:50:56;;;;;;;10.10;2.22;;;13.90;99.90;;;;;;5050746;28;20028;-79
2023/03/10 07:53:22;;;;;;;12.68;2.78;;;13.90;99.90;;;;;;5051979;28;20446;-76
2023/03/10 07:55:48;;;;;;;14.48;2.75;;;13.80;99.90;;;;;;5044052;28;20500;-75
2023/03/10 07:58:13;;;;;;;11.48;2.70;;;13.80;99.90;;;;;;5044821;28;20462;-70
2023/03/10 08:00:39;;;;;;;12.18;2.95;;;13.80;99.90;;;;;;5050942;28;20552;-75
2023/03/10 08:03:04;;;;;;;10.45;3.13;;;13.80;99.90;;;;;;5035277;28;20470;-76
2023/03/10 08:05:31;;;;;;;11.20;2.50;;;13.80;99.90;;;;;;5036695;28;20479;-79
2023/03/10 08:07:57;;;;;;;13.95;3.28;;;13.70;99.90;;;;;;5054779;28;20498;-77
2023/03/10 08:10:23;;;;;;;11.05;3.67;;;13.70;99.90;;;;;;5049272;28;20513;-75
2023/03/10 08:12:49;;;;;;;13.27;4.30;;;13.60;99.90;;;;;;5023506;28;20049;-78
2023/03/10 08:15:14;;;;;;;10.40;3.38;;;13.70;99.90;;;;;;5038920;28;20021;-77
2023/03/10 08:17:40;;;;;;;16.85;3.53;;;13.70;99.90;;;;;;5049497;28;20482;-70
2023/03/10 08:20:06;;;;;;;11.93;3.05;;;13.70;99.90;;;;;;5053883;28;20720;-80
2023/03/10 08:22:32;;;;;;;13.73;3.00;;;13.70;99.90;;;;;;5049130;28;20021;-72
2023/03/10 08:24:58;;;;;;;12.85;3.33;;;13.80;99.90;;;;;;5048540;28;20040;-72
2023/03/10 08:27:25;;;;;;;13.23;2.78;;;13.80;99.90;;;;;;5051484;28;20031;-74
2023/03/10 08:29:50;;;;;;;10.85;2.75;;;13.80;99.90;;;;;;5054018;28;20103;-75
2023/03/10 08:32:16;;;;;;;11.63;2.78;;;13.80;99.90;;;;;;5054501;28;20064;-77
2023/03/10 08:34:43;;;;;;;10.35;2.97;;;13.80;99.90;;;;;;5033553;28;20028;-77
2023/03/10 08:37:09;;;;;;;9.93;2.58;;;13.90;99.90;;;;;;5049483;28;20074;-77
2023/03/10 08:39:34;;;;;;;9.38;2.63;;;13.90;99.90;;;;;;5041908;28;20470;-73
2023/03/10 08:42:00;;;;;;;10.40;2.83;;;13.90;99.90;;;;;;5052277;28;20083;-78
2023/03/10 08:44:26;;;;;;;9.88;2.60;;;13.80;99.90;;;;;;5051800;28;20513;-75
2023/03/10 08:46:51;;;;;;;5.82;2.03;;;13.90;99.90;;;;;;5054384;28;20012;-76
2023/03/10 08:49:19;;;;;;;7.57;1.85;;;13.90;99.90;;;;;;5053475;28;20482;-77
2023/03/10 08:51:45;;;;;;;6.13;2.05;;;13.90;99.90;;;;;;5054365;28;20036;-72
2023/03/10 08:54:13;;;;;;;7.95;2.17;;;13.90;99.90;;;;;;5035947;28;20471;-73
2023/03/10 08:56:38;;;;;;;7.00;1.85;;;13.90;99.90;;;;;;5035067;28;20029;-74
2023/03/10 08:59:04;;;;;;;6.85;1.80;;;13.90;99.90;;;;;;5047710;28;20100;-75
2023/03/10 09:01:32;;;;;;;11.13;2.00;;;13.90;99.90;;;;;;5042395;28;20029;-75
2023/03/10 09:03:59;;;;;;;6.30;1.60;;;13.90;99.90;;;;;;5053996;28;20025;-75
2023/03/10 09:06:25;;;;;;;11.57;1.50;;;14.00;99.90;;;;;;5035442;28;20029;-77
2023/03/10 09:08:51;;;;;;;3.95;1.40;;;14.00;99.90;;;;;;5034255;28;20399;-77
2023/03/10 09:11:21;;;;;;;4.82;1.55;;;14.00;99.90;;;;;;5051836;28;20021;-77
2023/03/10 09:13:47;;;;;;;5.38;1.83;;;14.00;99.90;;;;;;5045337;28;20175;-73
2023/03/10 09:16:14;;;;;;;7.47;1.77;;;14.00;99.90;;;;;;5049389;28;20446;-74
2023/03/10 09:18:40;;;;;;;3.55;1.70;;;14.00;99.90;;;;;;5050596;28;20482;-77
2023/03/10 09:21:06;;;;;;;5.72;1.60;;;14.00;99.90;;;;;;5040087;28;20021;-70
2023/03/10 09:23:31;;;;;;;5.60;1.70;;;14.00;99.90;;;;;;5036291;28;20108;-77
2023/03/10 09:25:57;;;;;;;3.30;1.42;;;14.00;99.90;;;;;;5040624;28;20037;-75
2023/03/10 09:28:22;;;;;;;6.03;1.77;;;14.00;99.90;;;;;;5039716;28;20026;-73
2023/03/10 09:30:49;;;;;;;4.22;1.50;;;14.00;99.90;;;;;;5043123;28;20032;-78
2023/03/10 09:33:20;;;;;;;3.13;1.20;;;14.00;99.90;;;;;;5051779;28;20107;-77
2023/03/10 09:35:46;;;;;;;6.65;1.83;;;14.00;99.90;;;;;;5049098;28;20473;-76
2023/03/10 09:38:12;;;;;;;4.10;1.30;;;14.00;99.90;;;;;;5045672;28;20035;-76
2023/03/10 09:40:43;;;;;;;3.97;1.50;;;14.00;99.90;;;;;;5051007;28;20029;-72
2023/03/10 09:43:16;;;;;;;3.50;1.38;;;14.00;99.90;;;;;;5053432;28;20120;-72
2023/03/10 09:45:52;;;;;;;4.40;1.48;;;14.00;99.90;;;;;;5052477;28;20067;-77
2023/03/10 09:48:27;;;;;;;3.03;0.75;;;14.10;99.90;;;;;;5053318;28;20363;-74
2023/03/10 09:50:55;;;;;;;2.58;0.80;;;14.10;99.90;;;;;;5051869;28;20063;-72
2023/03/10 09:53:38;;;;;;;3.35;1.50;;;14.00;99.90;;;;;;5053068;28;20517;-77
2023/03/10 09:56:14;;;;;;;2.92;0.95;;;14.10;99.90;;;;;;5051732;28;20090;-78
2023/03/10 09:58:47;;;;;;;3.45;1.02;;;14.10;99.90;;;;;;5043750;28;20471;-74
2023/03/10 10:01:23;;;;;;;3.92;1.30;;;14.10;99.90;;;;;;5051737;28;20025;-73
2023/03/10 10:03:52;;;;;;;3.47;1.05;;;14.10;99.90;;;;;;5051340;28;20025;-77
2023/03/10 10:06:24;;;;;;;3.20;1.00;;;14.00;99.90;;;;;;5037235;28;20051;-73
2023/03/10 10:09:04;;;;;;;2.20;0.98;;;14.10;99.90;;;;;;5047731;28;20083;-74
2023/03/10 10:11:30;;;;;;;2.42;0.77;;;14.10;99.90;;;;;;5051375;28;20021;-73
2023/03/10 10:14:23;;;;;;;2.58;0.90;;;14.10;99.90;;;;;;5050395;28;20119;-81
2023/03/10 10:17:07;;;;;;;3.50;1.08;;;14.10;99.90;;;;;;5046254;28;20052;-79
2023/03/10 10:19:33;;;;;;;2.10;0.90;;;14.10;99.90;;;;;;5037139;28;20316;-74
2023/03/10 10:22:28;;;;;;;3.63;0.90;;;14.10;99.90;;;;;;5047447;28;20426;-75
2023/03/10 10:25:09;;;;;;;2.03;0.90;;;14.10;99.90;;;;;;5011817;28;20072;-72
2023/03/10 10:27:36;;;;;;;4.13;1.00;;;14.10;99.90;;;;;;5051342;28;20063;-77
2023/03/10 10:30:34;;;;;;;1.60;0.80;;;14.10;99.90;;;;;;5051568;28;20102;-77
2023/03/10 10:33:03;;;;;;;2.58;0.98;;;14.20;99.90;;;;;;5023423;28;20049;-72
2023/03/10 10:35:40;;;;;;;1.83;0.80;;;14.10;99.90;;;;;;5050473;28;20490;-72
2023/03/10 10:38:09;;;;;;;2.95;1.50;;;14.10;99.90;;;;;;5050414;28;20044;-69
2023/03/10 10:40:49;;;;;;;2.60;1.05;;;14.10;99.90;;;;;;5043134;28;20032;-75
2023/03/10 10:43:19;;;;;;;5.05;1.58;;;14.00;99.90;;;;;;5047675;28;20580;-76
2023/03/10 10:45:56;;;;;;;4.40;1.95;;;14.00;99.90;;;;;;5045556;28;20032;-86
2023/03/10 10:48:41;;;;;;;2.83;1.70;;;14.00;99.90;;;;;;5039266;28;20045;-75
2023/03/10 10:51:23;;;;;;;3.05;2.08;;;14.00;99.90;;;;;;5032637;28;20045;-76
2023/03/10 10:53:49;;;;;;;4.32;2.10;;;14.00;99.90;;;;;;5049339;28;20036;-76
2023/03/10 10:56:16;;;;;;;2.92;1.73;;;14.00;99.90;;;;;;5034114;28;20368;-75
2023/03/10 10:58:58;;;;;;;2.92;2.13;;;14.00;99.90;;;;;;5051786;28;20029;-78
2023/03/10 11:01:24;;;;;;;2.35;1.50;;;13.90;99.90;;;;;;5052249;28;20036;-77
2023/03/10 11:04:05;;;;;;;8.93;1.85;;;14.00;99.90;;;;;;5050060;28;20033;-73
2023/03/10 11:06:36;;;;;;;4.35;1.85;;;14.00;99.90;;;;;;5046792;28;20029;-76
2023/03/10 11:09:17;;;;;;;3.88;2.75;;;14.00;99.90;;;;;;5048021;28;20029;-74
2023/03/10 11:11:52;;;;;;;4.20;2.90;;;14.00;99.90;;;;;;5048925;28;20532;-70
2023/03/10 11:14:33;;;;;;;5.53;3.10;;;14.00;99.90;;;;;;5032136;28;20025;-70
2023/03/10 11:17:13;;;;;;;6.32;3.00;;;14.00;99.90;;;;;;5044055;28;21554;-76
2023/03/10 11:20:07;;;;;;;4.40;3.53;;;14.10;99.90;;;;;;5042557;28;20049;-75
2023/03/10 11:23:14;;;;;;;6.88;4.18;;;14.10;99.90;;;;;;5039908;28;20519;-72
2023/03/10 11:26:07;;;;;;;4.57;2.60;;;14.10;99.90;;;;;;5047251;28;20095;-75
2023/03/10 11:28:55;;;;;;;6.18;4.35;;;14.10;99.90;;;;;;5049899;28;20095;-72
2023/03/10 11:32:08;;;;;;;4.65;4.22;;;14.10;99.90;;;;;;5039771;28;20029;-73
2023/03/10 11:34:54;;;;;;;7.13;4.55;;;14.20;99.90;;;;;;5027281;28;20474;-73
2023/03/10 11:37:29;;;;;;;6.78;6.07;;;14.20;99.90;;;;;;5051360;28;20044;-75
2023/03/10 11:40:06;;;;;;;5.55;3.63;;;14.10;99.90;;;;;;5031902;28;20037;-75
2023/03/10 11:43:01;;;;;;;5.53;4.20;;;14.20;99.90;;;;;;5051870;28;20021;-75
2023/03/10 11:45:39;;;;;;;4.38;3.33;;;14.20;99.90;;;;;;5045439;28;20431;-71
2023/03/10 11:48:28;;;;;;;3.47;3.03;;;14.20;99.90;;;;;;5035545;28;20025;-73
2023/03/10 11:50:59;;;;;;;2.78;2.58;;;14.20;99.90;;;;;;5051288;28;20021;-71
2023/03/10 11:53:34;;;;;;;1.60;1.50;;;14.20;99.90;;;;;;5038499;28;20033;-76
2023/03/10 11:56:01;;;;;;;4.70;1.30;;;14.20;99.90;;;;;;5039327;28;20033;-74
2023/03/10 11:58:38;;;;;;;1.40;1.17;;;14.20;99.90;;;;;;5039112;28;20083;-72
2023/03/10 12:01:06;;;;;;;3.28;1.30;;;14.20;99.90;;;;;;5053692;28;20036;-75
2023/03/10 12:03:41;;;;;;;2.95;1.42;;;14.20;99.90;;;;;;5041858;28;20037;-74
2023/03/10 12:06:13;;;;;;;2.65;1.63;;;14.20;99.90;;;;;;5036497;28;20029;-74
2023/03/10 12:08:40;;;;;;;2.33;1.38;;;14.20;99.90;;;;;;5045050;28;20069;-71
2023/03/10 12:11:14;;;;;;;1.35;1.23;;;14.20;99.90;;;;;;5050171;28;20125;-73
2023/03/10 12:13:46;;;;;;;1.67;0.70;;;14.20;99.90;;;;;;5051275;28;20087;-72
2023/03/10 12:16:20;;;;;;;2.17;1.10;;;14.30;99.90;;;;;;5053075;28;20031;-74
2023/03/10 12:18:46;;;;;;;1.70;1.13;;;14.40;99.90;;;;;;5054943;28;20029;-73
2023/03/10 12:21:22;;;;;;;2.17;1.98;;;14.40;99.90;;;;;;5054378;28;20075;-75
2023/03/10 12:23:50;;;;;;;1.90;1.75;;;14.40;99.90;;;;;;5054820;28;20416;-74
2023/03/10 12:26:36;;;;;;;3.20;2.40;;;14.40;99.90;;;;;;5054043;28;20029;-74
2023/03/10 12:29:29;;;;;;;2.15;1.80;;;14.40;99.90;;;;;;5054233;28;20466;-71
2023/03/10 12:31:55;;;;;;;2.38;1.60;;;14.40;99.90;;;;;;5054086;28;20044;-72
2023/03/10 12:34:31;;;;;;;3.42;1.60;;;14.40;99.90;;;;;;5053226;28;20033;-73
2023/03/10 12:37:20;;;;;;;3.05;2.17;;;14.40;99.90;;;;;;5037819;28;20473;-75
2023/03/10 12:39:46;;;;;;;3.03;2.58;;;14.40;99.90;;;;;;5051315;28;20485;-73
2023/03/10 12:42:31;;;;;;;2.85;2.10;;;14.30;99.70;;;;;;5051257;28;20029;-75
2023/03/10 12:45:15;;;;;;;3.25;1.17;;;14.30;99.70;;;;;;5034492;28;20087;-72
2023/03/10 12:47:49;;;;;;;5.40;1.70;;;14.50;99.90;;;;;;5036006;28;20030;-75
2023/03/10 12:50:36;;;;;;;4.47;1.75;;;14.60;99.90;;;;;;5033750;28;20022;-71
2023/03/10 12:53:24;;;;;;;3.60;1.42;;;14.60;99.90;;;;;;5034347;28;20033;-72
2023/03/10 12:56:32;;;;;;;4.15;1.45;;;14.60;99.90;;;;;;5042714;28;20075;-72
2023/03/10 12:59:10;;;;;;;3.40;1.08;;;14.70;99.80;;;;;;4959740;28;20039;-72